createdAt,value
2023-05-02T00:01:18.822Z,11.45
2023-05-02T00:03:45.423Z,11.47
2023-05-02T00:06:12.661Z,11.46
2023-05-02T00:08:39.358Z,11.36
2023-05-02T00:11:06.049Z,11.39
2023-05-02T00:13:32.483Z,11.35
2023-05-02T00:15:58.953Z,11.36
2023-05-02T00:18:25.550Z,11.33
2023-05-02T00:20:52.293Z,11.34
2023-05-02T00:23:18.698Z,11.39
2023-05-02T00:25:46.102Z,11.35
2023-05-02T00:28:13.747Z,11.29
2023-05-02T00:30:47.203Z,11.29
2023-05-02T00:33:14.912Z,11.32
2023-05-02T00:35:42.058Z,11.37
2023-05-02T00:38:08.573Z,11.42
2023-05-02T00:40:49.322Z,11.40
2023-05-02T00:43:16.476Z,11.43
2023-05-02T00:45:44.209Z,11.34
2023-05-02T00:48:11.506Z,11.42
2023-05-02T00:50:40.523Z,11.38
2023-05-02T00:53:08.731Z,11.40
2023-05-02T00:55:36.061Z,11.40
2023-05-02T00:58:06.718Z,11.33
2023-05-02T01:01:02.904Z,11.14
2023-05-02T01:03:44.745Z,10.90
2023-05-02T01:06:36.696Z,10.89
2023-05-02T01:09:12.961Z,10.76
2023-05-02T01:12:10.266Z,10.78
2023-05-02T01:14:42.738Z,10.74
2023-05-02T01:17:13.931Z,10.67
2023-05-02T01:19:43.663Z,10.73
2023-05-02T01:22:11.704Z,10.68
2023-05-02T01:25:09.202Z,10.65
2023-05-02T01:27:57.798Z,10.76
2023-05-02T01:30:26.746Z,10.73
2023-05-02T01:32:55.357Z,10.76
2023-05-02T01:35:24.347Z,10.80
2023-05-02T01:37:53.082Z,10.78
2023-05-02T01:40:22.723Z,10.58
2023-05-02T01:42:51.764Z,10.59
2023-05-02T01:45:20.970Z,10.69
2023-05-02T01:47:48.809Z,10.73
2023-05-02T01:50:20.133Z,10.71
2023-05-02T01:52:49.508Z,10.70
2023-05-02T01:55:17.744Z,10.66
2023-05-02T01:57:46.606Z,10.61
2023-05-02T02:00:16.316Z,10.66
2023-05-02T02:02:45.289Z,10.73
2023-05-02T02:05:14.864Z,10.68
2023-05-02T02:07:43.175Z,10.53
2023-05-02T02:10:10.174Z,10.56
2023-05-02T02:12:41.705Z,10.57
2023-05-02T02:15:34.277Z,10.40
2023-05-02T02:18:05.416Z,10.42
2023-05-02T02:20:32.781Z,10.36
2023-05-02T02:23:03.091Z,10.30
2023-05-02T02:25:29.884Z,10.28
2023-05-02T02:27:57.027Z,10.31
2023-05-02T02:30:23.799Z,10.32
2023-05-02T02:32:50.258Z,10.31
2023-05-02T02:35:17.134Z,10.23
2023-05-02T02:37:52.068Z,10.11
2023-05-02T02:40:39.986Z,10.07
2023-05-02T02:43:15.469Z,9.85
2023-05-02T02:46:04.409Z,9.82
2023-05-02T02:48:48.997Z,9.60
2023-05-02T02:51:52.907Z,9.34
2023-05-02T02:54:34.697Z,9.24
2023-05-02T02:57:47.440Z,9.34
2023-05-02T03:00:20.352Z,9.45
2023-05-02T03:02:47.898Z,9.45
2023-05-02T03:05:15.496Z,9.48
2023-05-02T03:07:42.086Z,9.49
2023-05-02T03:10:09.328Z,9.36
2023-05-02T03:12:37.614Z,9.21
2023-05-02T03:15:25.064Z,9.12
2023-05-02T03:17:51.947Z,9.10
2023-05-02T03:20:19.057Z,9.11
2023-05-02T03:22:45.604Z,9.07
2023-05-02T03:25:12.741Z,9.02
2023-05-02T03:27:43.320Z,8.97
2023-05-02T03:30:11.476Z,8.89
2023-05-02T03:32:38.061Z,8.75
2023-05-02T03:35:05.569Z,8.85
2023-05-02T03:37:37.640Z,8.80
2023-05-02T03:40:04.567Z,8.82
2023-05-02T03:42:31.096Z,8.74
2023-05-02T03:44:58.200Z,8.70
2023-05-02T03:47:27.257Z,8.64
2023-05-02T03:49:53.850Z,8.73
2023-05-02T03:52:20.988Z,8.61
2023-05-02T03:54:50.002Z,8.69
2023-05-02T03:57:16.542Z,8.80
2023-05-02T03:59:45.599Z,8.59
2023-05-02T04:02:20.820Z,8.51
2023-05-02T04:04:49.029Z,8.47
2023-05-02T04:07:19.667Z,8.56
2023-05-02T04:09:51.224Z,8.60
2023-05-02T04:12:17.828Z,8.58
2023-05-02T04:14:47.996Z,8.72
2023-05-02T04:17:15.963Z,8.61
2023-05-02T04:19:48.681Z,8.60
2023-05-02T04:22:15.957Z,8.58
2023-05-02T04:24:47.025Z,8.42
2023-05-02T04:27:15.487Z,8.44
2023-05-02T04:29:42.699Z,8.40
2023-05-02T04:32:11.704Z,8.41
2023-05-02T04:34:39.354Z,8.42
2023-05-02T04:37:06.347Z,8.21
2023-05-02T04:39:34.432Z,8.26
2023-05-02T04:42:05.024Z,8.41
2023-05-02T04:44:36.361Z,8.36
2023-05-02T04:47:04.551Z,8.30
2023-05-02T04:49:32.067Z,8.25
2023-05-02T04:51:59.198Z,8.34
2023-05-02T04:54:25.725Z,8.16
2023-05-02T04:56:52.288Z,8.19
2023-05-02T04:59:19.725Z,8.06
2023-05-02T05:01:46.714Z,8.18
2023-05-02T05:04:13.352Z,8.29
2023-05-02T05:06:40.146Z,8.28
2023-05-02T05:09:07.079Z,8.38
2023-05-02T05:11:35.589Z,8.40
2023-05-02T05:14:04.365Z,8.40
2023-05-02T05:16:33.460Z,8.37
2023-05-02T05:19:00.395Z,8.40
2023-05-02T05:21:27.355Z,8.49
2023-05-02T05:23:54.500Z,8.34
2023-05-02T05:26:26.946Z,8.21
2023-05-02T05:28:54.213Z,8.15
2023-05-02T05:31:24.436Z,8.18
2023-05-02T05:33:54.749Z,8.12
2023-05-02T05:36:23.748Z,8.11
2023-05-02T05:38:51.594Z,8.24
2023-05-02T05:41:18.821Z,8.22
2023-05-02T05:43:49.068Z,8.16
2023-05-02T05:46:15.822Z,8.19
2023-05-02T05:48:42.404Z,8.18
2023-05-02T05:51:09.455Z,8.16
2023-05-02T05:53:36.099Z,8.25
2023-05-02T05:56:12.151Z,8.25
2023-05-02T05:58:44.003Z,8.27
2023-05-02T06:01:12.710Z,8.17
2023-05-02T06:03:40.134Z,8.17
2023-05-02T06:06:06.821Z,8.03
2023-05-02T06:08:33.325Z,8.11
2023-05-02T06:10:59.774Z,8.17
2023-05-02T06:13:26.666Z,8.08
2023-05-02T06:15:53.125Z,8.12
2023-05-02T06:18:19.683Z,8.15
2023-05-02T06:20:46.122Z,8.17
2023-05-02T06:23:12.773Z,8.18
2023-05-02T06:25:39.427Z,8.25
2023-05-02T06:28:06.172Z,8.26
2023-05-02T06:30:32.786Z,8.25
2023-05-02T06:32:59.313Z,8.23
2023-05-02T06:35:25.805Z,8.19
2023-05-02T06:37:52.254Z,8.32
2023-05-02T06:40:18.810Z,8.22
2023-05-02T06:42:45.451Z,8.27
2023-05-02T06:45:11.844Z,8.31
2023-05-02T06:47:38.384Z,8.35
2023-05-02T06:50:05.309Z,8.33
2023-05-02T06:52:31.729Z,8.38
2023-05-02T06:54:58.228Z,8.49
2023-05-02T06:57:25.154Z,8.51
2023-05-02T06:59:51.565Z,8.50
2023-05-02T07:02:18.365Z,8.65
2023-05-02T07:04:45.197Z,8.44
2023-05-02T07:07:11.824Z,8.52
2023-05-02T07:09:38.300Z,8.41
2023-05-02T07:12:06.889Z,8.57
2023-05-02T07:14:33.621Z,8.56
2023-05-02T07:17:00.478Z,8.49
2023-05-02T07:19:26.973Z,8.65
2023-05-02T07:21:53.449Z,8.66
2023-05-02T07:24:20.006Z,8.64
2023-05-02T07:26:46.460Z,8.76
2023-05-02T07:29:13.025Z,8.86
2023-05-02T07:31:39.597Z,8.91
2023-05-02T07:34:06.313Z,8.77
2023-05-02T07:36:32.801Z,8.52
2023-05-02T07:38:59.264Z,8.58
2023-05-02T07:41:25.839Z,8.67
2023-05-02T07:43:52.323Z,8.73
2023-05-02T07:46:18.873Z,8.86
2023-05-02T07:48:45.521Z,8.81
2023-05-02T07:51:12.174Z,9.01
2023-05-02T07:53:38.651Z,9.14
2023-05-02T07:56:08.820Z,9.41
2023-05-02T07:58:37.197Z,9.64
2023-05-02T08:01:03.942Z,9.71
2023-05-02T08:03:31.504Z,9.61
2023-05-02T08:05:58.069Z,9.37
2023-05-02T08:08:25.164Z,9.40
2023-05-02T08:10:51.675Z,9.59
2023-05-02T08:13:18.203Z,9.82
2023-05-02T08:15:44.827Z,9.70
2023-05-02T08:18:11.714Z,9.79
2023-05-02T08:20:38.186Z,9.86
2023-05-02T08:23:04.671Z,9.71
2023-05-02T08:25:31.169Z,9.73
2023-05-02T08:27:57.729Z,10.01
2023-05-02T08:30:24.475Z,10.12
2023-05-02T08:32:51.065Z,10.29
2023-05-02T08:35:17.561Z,10.04
2023-05-02T08:37:44.055Z,10.16
2023-05-02T08:40:12.569Z,10.14
2023-05-02T08:42:44.073Z,10.18
2023-05-02T08:45:16.339Z,10.24
2023-05-02T08:47:44.600Z,10.16
2023-05-02T08:50:11.909Z,10.09
2023-05-02T08:52:39.057Z,10.38
2023-05-02T08:55:07.321Z,10.63
2023-05-02T08:57:34.021Z,10.71
2023-05-02T09:00:00.872Z,10.64
2023-05-02T09:02:54.248Z,11.06
2023-05-02T09:05:24.486Z,11.31
2023-05-02T09:07:52.136Z,11.20
2023-05-02T09:10:18.777Z,10.71
2023-05-02T09:12:45.342Z,10.56
2023-05-02T09:15:19.889Z,10.53
2023-05-02T09:17:48.792Z,10.47
2023-05-02T09:20:16.552Z,10.49
2023-05-02T09:22:52.865Z,10.43
2023-05-02T09:25:22.470Z,10.58
2023-05-02T09:27:54.293Z,10.77
2023-05-02T09:30:25.417Z,11.06
2023-05-02T09:32:55.996Z,11.33
2023-05-02T09:35:25.941Z,11.35
2023-05-02T09:37:57.207Z,11.43
2023-05-02T09:40:24.488Z,11.29
2023-05-02T09:42:52.306Z,11.12
2023-05-02T09:45:22.104Z,10.79
2023-05-02T09:47:49.405Z,10.77
2023-05-02T09:50:36.524Z,10.74
2023-05-02T09:53:10.984Z,10.76
2023-05-02T09:55:37.801Z,10.46
2023-05-02T09:58:04.468Z,10.77
2023-05-02T10:00:44.372Z,11.49
2023-05-02T10:03:11.744Z,11.25
2023-05-02T10:05:39.589Z,10.96
2023-05-02T10:08:07.545Z,10.82
2023-05-02T10:10:37.968Z,10.85
2023-05-02T10:13:05.671Z,10.74
2023-05-02T10:15:34.353Z,10.30
2023-05-02T10:18:08.953Z,10.33
2023-05-02T10:20:38.045Z,10.42
2023-05-02T10:23:06.081Z,10.55
2023-05-02T10:25:33.228Z,10.73
2023-05-02T10:27:59.816Z,11.11
2023-05-02T10:30:26.835Z,11.42
2023-05-02T10:32:56.611Z,12.02
2023-05-02T10:35:25.482Z,12.09
2023-05-02T10:37:52.962Z,11.95
2023-05-02T10:40:19.619Z,12.00
2023-05-02T10:42:47.912Z,11.77
2023-05-02T10:45:30.682Z,11.72
2023-05-02T10:48:17.519Z,11.69
2023-05-02T10:50:47.331Z,11.52
2023-05-02T10:53:33.677Z,11.32
2023-05-02T10:56:08.962Z,11.32
2023-05-02T10:58:35.461Z,11.48
2023-05-02T11:01:30.718Z,11.12
2023-05-02T11:04:02.365Z,10.99
2023-05-02T11:06:37.056Z,10.71
2023-05-02T11:09:13.717Z,11.05
2023-05-02T11:11:42.308Z,10.90
2023-05-02T11:14:09.873Z,10.73
2023-05-02T11:16:58.722Z,10.57
2023-05-02T11:19:26.272Z,10.70
2023-05-02T11:21:53.931Z,10.61
2023-05-02T11:24:41.378Z,10.75
2023-05-02T11:27:29.394Z,10.88
2023-05-02T11:30:06.773Z,10.98
2023-05-02T11:32:59.382Z,10.97
2023-05-02T11:35:27.112Z,10.83
2023-05-02T11:37:54.599Z,10.71
2023-05-02T11:40:21.613Z,10.80
2023-05-02T11:42:48.318Z,10.51
2023-05-02T11:45:15.198Z,10.63
2023-05-02T11:47:42.935Z,11.07
2023-05-02T11:50:09.990Z,11.36
2023-05-02T11:52:40.694Z,11.38
2023-05-02T11:55:10.415Z,11.11
2023-05-02T11:57:39.048Z,11.11
2023-05-02T12:00:06.572Z,11.08
2023-05-02T12:02:43.473Z,10.88
2023-05-02T12:05:12.976Z,10.84
2023-05-02T12:07:41.090Z,10.75
2023-05-02T12:10:08.845Z,10.82
2023-05-02T12:12:36.662Z,12.19
2023-05-02T12:15:07.701Z,12.65
2023-05-02T12:17:37.157Z,12.92
2023-05-02T12:20:05.247Z,12.76
2023-05-02T12:22:31.849Z,12.19
2023-05-02T12:27:25.472Z,12.95
2023-05-02T12:29:52.491Z,12.40
2023-05-02T12:32:30.484Z,11.91
2023-05-02T12:34:57.988Z,11.66
2023-05-02T12:37:28.368Z,11.36
2023-05-02T12:39:56.607Z,11.12
2023-05-02T12:42:25.384Z,10.96
2023-05-02T12:44:53.387Z,10.92
2023-05-02T12:47:22.600Z,11.06
2023-05-02T12:49:59.765Z,11.03
2023-05-02T12:53:01.696Z,11.02
2023-05-02T12:55:28.255Z,10.93
2023-05-02T12:58:02.971Z,10.87
2023-05-02T13:00:31.197Z,10.91
2023-05-02T13:02:57.771Z,10.77
2023-05-02T13:05:24.912Z,10.86
2023-05-02T13:07:52.746Z,10.98
2023-05-02T13:10:19.454Z,10.85
2023-05-02T13:12:47.050Z,10.90
2023-05-02T13:15:14.688Z,10.78
2023-05-02T13:17:41.421Z,11.74
2023-05-02T13:20:09.541Z,12.94
2023-05-02T13:22:39.257Z,13.29
2023-05-02T13:25:06.981Z,12.26
2023-05-02T13:27:36.358Z,11.84
2023-05-02T13:30:06.651Z,12.60
2023-05-02T13:32:35.663Z,13.05
2023-05-02T13:35:03.739Z,13.47
2023-05-02T13:37:30.433Z,14.27
2023-05-02T13:39:57.083Z,14.44
2023-05-02T13:42:23.518Z,13.99
2023-05-02T13:44:50.453Z,13.73
2023-05-02T13:47:16.938Z,13.52
2023-05-02T13:49:43.425Z,12.40
2023-05-02T13:52:09.822Z,11.99
2023-05-02T13:54:36.429Z,11.86
2023-05-02T13:57:03.145Z,11.52
2023-05-02T13:59:29.726Z,11.41
2023-05-02T14:01:56.269Z,11.34
2023-05-02T14:04:23.725Z,11.16
2023-05-02T14:06:51.202Z,11.00
2023-05-02T14:09:18.020Z,10.98
2023-05-02T14:11:47.118Z,10.97
2023-05-02T14:14:13.663Z,11.14
2023-05-02T14:16:40.263Z,11.05
2023-05-02T14:19:07.104Z,11.01
2023-05-02T14:21:33.640Z,11.29
2023-05-02T14:24:00.276Z,11.50
2023-05-02T14:26:26.772Z,11.89
2023-05-02T14:28:53.377Z,12.39
2023-05-02T14:31:19.889Z,12.15
2023-05-02T14:33:46.486Z,11.81
2023-05-02T14:36:12.877Z,12.57
2023-05-02T14:38:39.792Z,11.93
2023-05-02T14:41:06.912Z,11.63
2023-05-02T14:43:33.515Z,11.42
2023-05-02T14:45:59.977Z,11.21
2023-05-02T14:48:26.904Z,11.14
2023-05-02T14:50:53.727Z,11.19
2023-05-02T14:53:21.328Z,11.14
2023-05-02T14:55:47.831Z,11.19
2023-05-02T14:58:20.298Z,11.35
2023-05-02T15:00:47.047Z,11.33
2023-05-02T15:03:13.973Z,11.57
2023-05-02T15:05:41.808Z,11.43
2023-05-02T15:08:08.370Z,11.20
2023-05-02T15:10:40.845Z,10.92
2023-05-02T15:13:08.633Z,11.06
2023-05-02T15:15:35.460Z,11.08
2023-05-02T15:18:02.161Z,11.21
2023-05-02T15:20:28.629Z,11.36
2023-05-02T15:22:55.224Z,11.76
2023-05-02T15:25:21.875Z,12.64
2023-05-02T15:27:48.591Z,12.56
2023-05-02T15:30:17.068Z,12.49
2023-05-02T15:32:44.622Z,11.71
2023-05-02T15:35:11.629Z,11.34
2023-05-02T15:37:38.116Z,11.14
2023-05-02T15:40:05.350Z,11.09
2023-05-02T15:42:36.810Z,10.82
2023-05-02T15:45:04.137Z,11.46
2023-05-02T15:47:30.702Z,12.16
2023-05-02T15:49:58.233Z,11.86
2023-05-02T15:52:24.792Z,12.22
2023-05-02T15:54:51.686Z,12.42
2023-05-02T15:57:19.060Z,13.01
2023-05-02T15:59:45.565Z,12.95
2023-05-02T16:02:12.108Z,13.16
2023-05-02T16:04:38.813Z,13.02
2023-05-02T16:07:05.462Z,12.65
2023-05-02T16:09:31.930Z,12.32
2023-05-02T16:11:58.511Z,12.54
2023-05-02T16:14:26.137Z,12.53
2023-05-02T16:16:52.702Z,12.43
2023-05-02T16:19:19.164Z,12.46
2023-05-02T16:21:45.896Z,12.70
2023-05-02T16:24:12.359Z,12.89
2023-05-02T16:26:39.006Z,12.45
2023-05-02T16:29:05.862Z,12.91
2023-05-02T16:31:32.332Z,12.84
2023-05-02T16:33:58.957Z,12.59
2023-05-02T16:36:26.344Z,12.52
2023-05-02T16:38:52.821Z,12.42
2023-05-02T16:41:19.384Z,12.45
2023-05-02T16:43:46.800Z,12.05
2023-05-02T16:46:13.404Z,11.65
2023-05-02T16:48:39.864Z,11.32
2023-05-02T16:51:06.404Z,11.09
2023-05-02T16:53:32.889Z,10.74
2023-05-02T16:55:59.628Z,10.59
2023-05-02T16:58:28.974Z,10.60
2023-05-02T17:00:56.111Z,10.80
2023-05-02T17:03:22.805Z,10.70
2023-05-02T17:05:49.294Z,10.56
2023-05-02T17:08:16.918Z,10.55
2023-05-02T17:10:48.473Z,10.29
2023-05-02T17:13:14.998Z,10.21
2023-05-02T17:15:41.873Z,10.12
2023-05-02T17:18:08.517Z,10.13
2023-05-02T17:20:35.963Z,10.03
2023-05-02T17:23:02.893Z,9.91
2023-05-02T17:25:30.441Z,10.08
2023-05-02T17:27:57.050Z,10.06
2023-05-02T17:30:25.018Z,9.81
2023-05-02T17:32:51.580Z,9.65
2023-05-02T17:35:18.085Z,9.61
2023-05-02T17:37:44.762Z,9.71
2023-05-02T17:40:12.228Z,9.79
2023-05-02T17:42:38.948Z,9.83
2023-05-02T17:45:06.760Z,9.73
2023-05-02T17:47:33.279Z,9.73
2023-05-02T17:50:02.686Z,9.78
2023-05-02T17:52:29.382Z,9.72
2023-05-02T17:54:55.878Z,9.66
2023-05-02T17:57:22.622Z,9.60
2023-05-02T17:59:50.569Z,9.63
2023-05-02T18:02:17.774Z,9.67
2023-05-02T18:04:46.204Z,9.79
2023-05-02T18:07:12.786Z,9.72
2023-05-02T18:09:39.220Z,9.72
2023-05-02T18:12:06.236Z,9.41
2023-05-02T18:14:32.886Z,9.40
2023-05-02T18:16:59.435Z,9.40
2023-05-02T18:19:25.903Z,9.40
2023-05-02T18:21:52.454Z,9.22
2023-05-02T18:24:19.088Z,9.10
2023-05-02T18:26:48.341Z,9.10
2023-05-02T18:29:14.811Z,9.05
2023-05-02T18:31:42.281Z,9.06
2023-05-02T18:34:09.098Z,9.11
2023-05-02T18:36:35.673Z,9.23
2023-05-02T18:39:02.277Z,9.19
2023-05-02T18:41:28.828Z,9.20
2023-05-02T18:43:55.467Z,9.17
2023-05-02T18:46:21.988Z,9.05
2023-05-02T18:48:48.854Z,8.96
2023-05-02T18:51:15.810Z,8.93
2023-05-02T18:53:42.433Z,8.99
2023-05-02T18:56:14.281Z,8.88
2023-05-02T18:58:42.060Z,8.80
2023-05-02T19:01:15.793Z,8.85
2023-05-02T19:03:43.781Z,8.91
2023-05-02T19:06:10.764Z,8.91
2023-05-02T19:08:37.332Z,8.84
2023-05-02T19:11:04.268Z,8.83
2023-05-02T19:13:31.250Z,8.76
2023-05-02T19:15:58.602Z,8.82
2023-05-02T19:18:25.185Z,8.74
2023-05-02T19:20:52.424Z,8.67
2023-05-02T19:23:21.501Z,8.64
2023-05-02T19:25:47.920Z,8.57
2023-05-02T19:28:16.769Z,8.51
2023-05-02T19:30:44.314Z,8.51
2023-05-02T19:33:10.935Z,8.43
2023-05-02T19:35:37.427Z,8.34
2023-05-02T19:38:04.092Z,8.47
2023-05-02T19:40:31.171Z,8.22
2023-05-02T19:42:57.690Z,8.27
2023-05-02T19:45:24.200Z,8.20
2023-05-02T19:47:51.002Z,8.04
2023-05-02T19:50:17.649Z,7.97
2023-05-02T19:52:44.895Z,7.81
2023-05-02T19:55:11.443Z,7.83
2023-05-02T19:57:38.155Z,7.89
2023-05-02T20:00:06.102Z,7.95
2023-05-02T20:02:39.199Z,7.83
2023-05-02T20:05:06.291Z,7.78
2023-05-02T20:07:32.812Z,7.67
2023-05-02T20:09:59.432Z,7.68
2023-05-02T20:12:26.201Z,7.71
2023-05-02T20:14:52.844Z,7.79
2023-05-02T20:17:19.242Z,7.93
2023-05-02T20:19:45.890Z,7.99
2023-05-02T20:22:12.517Z,7.95
2023-05-02T20:24:39.343Z,7.93
2023-05-02T20:27:05.857Z,7.84
2023-05-02T20:29:32.284Z,7.86
2023-05-02T20:31:59.307Z,7.82
2023-05-02T20:34:26.172Z,7.86
2023-05-02T20:36:53.273Z,7.78
2023-05-02T20:39:22.872Z,7.67
2023-05-02T20:41:49.706Z,7.61
2023-05-02T20:44:17.546Z,7.60
2023-05-02T20:46:44.047Z,7.61
2023-05-02T20:49:10.507Z,7.55
2023-05-02T20:51:36.976Z,7.56
2023-05-02T20:54:03.905Z,7.62
2023-05-02T20:56:30.470Z,7.58
2023-05-02T20:58:56.972Z,7.56
2023-05-02T21:01:23.573Z,7.49
2023-05-02T21:03:50.084Z,7.45
2023-05-02T21:06:18.651Z,7.49
2023-05-02T21:08:45.331Z,7.48
2023-05-02T21:11:13.868Z,7.40
2023-05-02T21:13:41.177Z,7.22
2023-05-02T21:16:18.126Z,7.13
2023-05-02T21:18:45.615Z,7.15
2023-05-02T21:21:12.093Z,7.03
2023-05-02T21:23:38.657Z,6.95
2023-05-02T21:26:05.431Z,6.96
2023-05-02T21:28:31.979Z,6.86
2023-05-02T21:30:58.689Z,6.83
2023-05-02T21:33:25.190Z,6.75
2023-05-02T21:35:58.372Z,6.71
2023-05-02T21:38:26.352Z,6.61
2023-05-02T21:40:53.873Z,6.56
2023-05-02T21:43:20.734Z,6.55
2023-05-02T21:45:48.691Z,6.46
2023-05-02T21:48:16.502Z,6.41
2023-05-02T21:50:43.755Z,6.41
2023-05-02T21:53:10.840Z,6.49
2023-05-02T21:55:39.106Z,6.45
2023-05-02T21:58:06.970Z,6.45
2023-05-02T22:00:33.833Z,6.52
2023-05-02T22:03:06.103Z,6.45
2023-05-02T22:05:32.787Z,6.52
2023-05-02T22:08:00.687Z,6.60
2023-05-02T22:10:27.103Z,6.47
2023-05-02T22:12:53.560Z,6.45
2023-05-02T22:15:19.966Z,6.44
2023-05-02T22:17:46.578Z,6.42
2023-05-02T22:20:13.223Z,6.42
2023-05-02T22:22:40.849Z,6.47
2023-05-02T22:25:07.781Z,6.42
2023-05-02T22:27:34.364Z,6.34
2023-05-02T22:30:01.067Z,6.22
2023-05-02T22:32:27.883Z,6.12
2023-05-02T22:34:54.275Z,6.00
2023-05-02T22:37:20.751Z,5.97
2023-05-02T22:39:47.150Z,5.90
2023-05-02T22:42:13.724Z,5.86
2023-05-02T22:44:50.890Z,5.90
2023-05-02T22:47:23.257Z,5.86
2023-05-02T22:49:50.949Z,5.92
2023-05-02T22:52:18.313Z,5.88
2023-05-02T22:54:44.771Z,5.84
2023-05-02T22:57:11.312Z,5.83
2023-05-02T22:59:37.724Z,5.72
2023-05-02T23:02:04.577Z,5.69
2023-05-02T23:04:32.819Z,5.64
2023-05-02T23:06:59.811Z,5.60
2023-05-02T23:09:26.240Z,5.59
2023-05-02T23:11:52.836Z,5.52
2023-05-02T23:14:21.791Z,5.45
2023-05-02T23:16:53.769Z,5.45
2023-05-02T23:19:20.401Z,5.42
2023-05-02T23:21:47.095Z,5.41
2023-05-02T23:24:13.602Z,5.41
2023-05-02T23:26:40.929Z,5.30
2023-05-02T23:29:07.449Z,5.23
2023-05-02T23:31:34.211Z,5.24
2023-05-02T23:34:00.823Z,5.22
2023-05-02T23:36:27.408Z,5.23
2023-05-02T23:38:54.093Z,5.18
2023-05-02T23:41:22.223Z,5.12
2023-05-02T23:43:48.842Z,5.07
2023-05-02T23:46:15.375Z,5.07
2023-05-02T23:48:41.794Z,5.03
2023-05-02T23:51:08.366Z,5.05
2023-05-02T23:53:34.839Z,5.06
2023-05-02T23:56:01.510Z,4.96
2023-05-02T23:58:28.047Z,4.96
